sensor_id;sensor_type;location;lat;lon;timestamp;pressure;altitude;pressure_sealevel;temperature;humidity
76753;BME280;65687;51.308;16.916;2023-07-20T00:01:41;99044.43;;;17.49;70.52
76753;BME280;65687;51.308;16.916;2023-07-20T00:06:45;99031.92;;;17.33;71.29
76753;BME280;65687;51.308;16.916;2023-07-20T00:11:52;99032.95;;;17.20;71.80
76753;BME280;65687;51.308;16.916;2023-07-20T00:16:55;99042.17;;;17.14;72.61
76753;BME280;65687;51.308;16.916;2023-07-20T00:21:59;99035.59;;;17.03;73.04
76753;BME280;65687;51.308;16.916;2023-07-20T00:27:01;99034.08;;;16.91;73.84
76753;BME280;65687;51.308;16.916;2023-07-20T00:32:04;99048.41;;;16.79;74.83
76753;BME280;65687;51.308;16.916;2023-07-20T00:37:06;99061.21;;;16.62;76.07
76753;BME280;65687;51.308;16.916;2023-07-20T00:42:07;99065.19;;;16.53;76.66
76753;BME280;65687;51.308;16.916;2023-07-20T00:47:09;99062.86;;;16.48;77.03
76753;BME280;65687;51.308;16.916;2023-07-20T00:52:13;99053.20;;;16.44;77.48
76753;BME280;65687;51.308;16.916;2023-07-20T00:57:17;99048.67;;;16.36;77.57
76753;BME280;65687;51.308;16.916;2023-07-20T01:02:19;99047.58;;;16.33;77.91
76753;BME280;65687;51.308;16.916;2023-07-20T01:07:25;99039.09;;;16.34;78.11
76753;BME280;65687;51.308;16.916;2023-07-20T01:12:41;99030.63;;;16.30;78.72
76753;BME280;65687;51.308;16.916;2023-07-20T01:17:43;99029.95;;;16.25;79.01
76753;BME280;65687;51.308;16.916;2023-07-20T01:33:19;99047.23;;;16.15;79.90
76753;BME280;65687;51.308;16.916;2023-07-20T01:38:21;99046.91;;;16.16;79.89
76753;BME280;65687;51.308;16.916;2023-07-20T01:43:24;99042.00;;;16.11;80.07
76753;BME280;65687;51.308;16.916;2023-07-20T01:48:25;99044.64;;;16.08;80.10
76753;BME280;65687;51.308;16.916;2023-07-20T01:53:27;99048.38;;;16.03;80.37
76753;BME280;65687;51.308;16.916;2023-07-20T01:58:28;99056.19;;;15.96;80.60
76753;BME280;65687;51.308;16.916;2023-07-20T02:03:30;99056.56;;;15.92;80.63
76753;BME280;65687;51.308;16.916;2023-07-20T02:08:31;99061.20;;;15.88;80.95
76753;BME280;65687;51.308;16.916;2023-07-20T02:13:33;99064.17;;;15.85;81.13
76753;BME280;65687;51.308;16.916;2023-07-20T02:18:34;99063.50;;;15.86;81.11
76753;BME280;65687;51.308;16.916;2023-07-20T02:23:38;99057.30;;;15.84;81.20
76753;BME280;65687;51.308;16.916;2023-07-20T02:28:39;99061.26;;;15.79;81.29
76753;BME280;65687;51.308;16.916;2023-07-20T02:33:41;99062.09;;;15.73;81.63
76753;BME280;65687;51.308;16.916;2023-07-20T02:38:42;99061.86;;;15.66;81.88
76753;BME280;65687;51.308;16.916;2023-07-20T02:43:44;99056.60;;;15.61;81.87
76753;BME280;65687;51.308;16.916;2023-07-20T02:48:45;99045.44;;;15.58;81.76
76753;BME280;65687;51.308;16.916;2023-07-20T02:53:46;99047.53;;;15.60;81.45
76753;BME280;65687;51.308;16.916;2023-07-20T02:58:48;99052.75;;;15.58;81.57
76753;BME280;65687;51.308;16.916;2023-07-20T03:03:50;99057.38;;;15.54;81.51
76753;BME280;65687;51.308;16.916;2023-07-20T03:08:51;99064.08;;;15.52;81.88
76753;BME280;65687;51.308;16.916;2023-07-20T03:13:54;99066.98;;;15.47;81.97
76753;BME280;65687;51.308;16.916;2023-07-20T03:18:56;99073.36;;;15.44;81.81
76753;BME280;65687;51.308;16.916;2023-07-20T03:23:57;99064.39;;;15.46;81.96
76753;BME280;65687;51.308;16.916;2023-07-20T03:28:59;99067.40;;;15.44;81.91
76753;BME280;65687;51.308;16.916;2023-07-20T03:34:00;99058.79;;;15.41;82.19
76753;BME280;65687;51.308;16.916;2023-07-20T03:39:02;99064.05;;;15.35;82.73
76753;BME280;65687;51.308;16.916;2023-07-20T03:44:04;99059.91;;;15.29;83.01
76753;BME280;65687;51.308;16.916;2023-07-20T03:49:05;99056.60;;;15.22;83.23
76753;BME280;65687;51.308;16.916;2023-07-20T03:54:07;99055.45;;;15.18;83.25
76753;BME280;65687;51.308;16.916;2023-07-20T03:59:09;99053.17;;;15.16;83.10
76753;BME280;65687;51.308;16.916;2023-07-20T04:04:10;99056.39;;;15.11;83.80
76753;BME280;65687;51.308;16.916;2023-07-20T04:09:12;99067.86;;;15.13;83.64
76753;BME280;65687;51.308;16.916;2023-07-20T04:14:14;99073.27;;;15.16;83.62
76753;BME280;65687;51.308;16.916;2023-07-20T04:19:15;99082.39;;;15.15;83.92
76753;BME280;65687;51.308;16.916;2023-07-20T04:24:19;99087.21;;;15.16;84.23
76753;BME280;65687;51.308;16.916;2023-07-20T04:29:20;99079.99;;;15.19;83.99
76753;BME280;65687;51.308;16.916;2023-07-20T04:34:22;99095.63;;;15.23;83.58
76753;BME280;65687;51.308;16.916;2023-07-20T04:39:23;99108.23;;;15.29;83.89
76753;BME280;65687;51.308;16.916;2023-07-20T04:44:25;99109.02;;;15.31;84.01
76753;BME280;65687;51.308;16.916;2023-07-20T04:49:27;99120.73;;;15.31;84.06
76753;BME280;65687;51.308;16.916;2023-07-20T04:54:28;99117.92;;;15.34;84.24
76753;BME280;65687;51.308;16.916;2023-07-20T04:59:30;99117.95;;;15.39;84.00
76753;BME280;65687;51.308;16.916;2023-07-20T05:04:31;99120.48;;;15.49;84.16
76753;BME280;65687;51.308;16.916;2023-07-20T05:09:32;99130.13;;;15.56;84.15
76753;BME280;65687;51.308;16.916;2023-07-20T05:14:34;99129.52;;;15.63;84.41
76753;BME280;65687;51.308;16.916;2023-07-20T05:19:36;99133.21;;;15.67;84.11
76753;BME280;65687;51.308;16.916;2023-07-20T05:24:37;99144.77;;;15.72;84.05
76753;BME280;65687;51.308;16.916;2023-07-20T05:29:44;99147.59;;;15.74;84.27
76753;BME280;65687;51.308;16.916;2023-07-20T05:34:45;99144.64;;;15.78;83.92
76753;BME280;65687;51.308;16.916;2023-07-20T05:39:47;99156.78;;;15.84;83.89
76753;BME280;65687;51.308;16.916;2023-07-20T05:44:49;99154.69;;;15.88;83.49
76753;BME280;65687;51.308;16.916;2023-07-20T05:49:51;99159.36;;;15.95;83.56
76753;BME280;65687;51.308;16.916;2023-07-20T05:54:52;99154.83;;;16.03;83.84
76753;BME280;65687;51.308;16.916;2023-07-20T05:59:54;99162.75;;;16.11;83.54
76753;BME280;65687;51.308;16.916;2023-07-20T06:04:55;99166.41;;;16.19;83.50
76753;BME280;65687;51.308;16.916;2023-07-20T06:09:57;99164.95;;;16.27;83.55
76753;BME280;65687;51.308;16.916;2023-07-20T06:15:02;99166.83;;;16.31;83.18
76753;BME280;65687;51.308;16.916;2023-07-20T06:20:05;99165.91;;;16.35;83.23
76753;BME280;65687;51.308;16.916;2023-07-20T06:25:08;99166.73;;;16.39;82.94
76753;BME280;65687;51.308;16.916;2023-07-20T06:30:10;99167.90;;;16.44;82.63
76753;BME280;65687;51.308;16.916;2023-07-20T06:35:13;99174.33;;;16.43;82.24
76753;BME280;65687;51.308;16.916;2023-07-20T06:40:15;99181.27;;;16.46;81.94
76753;BME280;65687;51.308;16.916;2023-07-20T06:45:17;99183.00;;;16.53;82.03
76753;BME280;65687;51.308;16.916;2023-07-20T06:50:18;99195.50;;;16.60;81.39
76753;BME280;65687;51.308;16.916;2023-07-20T06:55:19;99193.27;;;16.65;81.51
76753;BME280;65687;51.308;16.916;2023-07-20T07:00:21;99192.71;;;16.74;81.63
76753;BME280;65687;51.308;16.916;2023-07-20T07:05:23;99197.06;;;16.83;81.27
76753;BME280;65687;51.308;16.916;2023-07-20T07:10:24;99199.99;;;16.95;80.84
76753;BME280;65687;51.308;16.916;2023-07-20T07:15:26;99201.36;;;17.07;80.58
76753;BME280;65687;51.308;16.916;2023-07-20T07:20:27;99192.27;;;17.23;80.46
76753;BME280;65687;51.308;16.916;2023-07-20T07:25:29;99189.69;;;17.41;79.22
76753;BME280;65687;51.308;16.916;2023-07-20T07:30:31;99195.72;;;17.55;78.40
76753;BME280;65687;51.308;16.916;2023-07-20T07:35:32;99198.06;;;17.54;77.88
76753;BME280;65687;51.308;16.916;2023-07-20T07:40:34;99190.29;;;17.62;77.41
76753;BME280;65687;51.308;16.916;2023-07-20T07:45:35;99190.06;;;17.86;76.22
76753;BME280;65687;51.308;16.916;2023-07-20T07:50:40;99196.41;;;18.01;75.89
76753;BME280;65687;51.308;16.916;2023-07-20T07:55:41;99198.38;;;18.18;75.17
76753;BME280;65687;51.308;16.916;2023-07-20T08:00:43;99196.56;;;18.21;74.94
76753;BME280;65687;51.308;16.916;2023-07-20T08:05:45;99200.66;;;18.14;75.17
76753;BME280;65687;51.308;16.916;2023-07-20T08:10:47;99197.39;;;18.13;75.04
76753;BME280;65687;51.308;16.916;2023-07-20T08:15:50;99200.25;;;18.18;74.33
76753;BME280;65687;51.308;16.916;2023-07-20T08:20:52;99205.95;;;18.34;72.99
76753;BME280;65687;51.308;16.916;2023-07-20T08:25:54;99206.96;;;18.55;71.33
76753;BME280;65687;51.308;16.916;2023-07-20T08:30:56;99206.55;;;18.59;70.88
76753;BME280;65687;51.308;16.916;2023-07-20T08:35:57;99200.02;;;19.04;69.58
76753;BME280;65687;51.308;16.916;2023-07-20T08:40:59;99204.66;;;19.21;68.10
76753;BME280;65687;51.308;16.916;2023-07-20T08:46:03;99204.61;;;19.61;66.63
76753;BME280;65687;51.308;16.916;2023-07-20T08:51:05;99205.14;;;19.89;65.59
76753;BME280;65687;51.308;16.916;2023-07-20T08:56:08;99205.83;;;19.89;64.20
76753;BME280;65687;51.308;16.916;2023-07-20T09:01:12;99213.33;;;19.69;63.94
76753;BME280;65687;51.308;16.916;2023-07-20T09:06:13;99213.23;;;19.64;65.13
76753;BME280;65687;51.308;16.916;2023-07-20T09:11:15;99200.98;;;19.88;64.62
76753;BME280;65687;51.308;16.916;2023-07-20T09:16:17;99197.52;;;20.36;63.03
76753;BME280;65687;51.308;16.916;2023-07-20T09:21:18;99196.85;;;20.70;60.47
76753;BME280;65687;51.308;16.916;2023-07-20T09:26:20;99196.36;;;20.85;59.75
76753;BME280;65687;51.308;16.916;2023-07-20T09:31:24;99193.17;;;21.15;58.43
76753;BME280;65687;51.308;16.916;2023-07-20T09:36:29;99190.58;;;21.27;57.25
76753;BME280;65687;51.308;16.916;2023-07-20T09:41:39;99189.08;;;21.31;57.08
76753;BME280;65687;51.308;16.916;2023-07-20T09:46:49;99185.64;;;21.45;54.03
76753;BME280;65687;51.308;16.916;2023-07-20T09:51:53;99182.18;;;21.61;53.53
76753;BME280;65687;51.308;16.916;2023-07-20T09:56:56;99184.55;;;21.58;53.01
76753;BME280;65687;51.308;16.916;2023-07-20T10:02:01;99180.14;;;21.63;52.59
76753;BME280;65687;51.308;16.916;2023-07-20T10:07:08;99176.27;;;21.70;52.97
76753;BME280;65687;51.308;16.916;2023-07-20T10:12:11;99172.88;;;21.75;52.65
76753;BME280;65687;51.308;16.916;2023-07-20T10:17:14;99170.92;;;21.87;52.35
76753;BME280;65687;51.308;16.916;2023-07-20T10:22:22;99173.32;;;21.85;51.78
76753;BME280;65687;51.308;16.916;2023-07-20T10:27:26;99170.73;;;21.85;52.95
76753;BME280;65687;51.308;16.916;2023-07-20T10:32:28;99163.50;;;22.01;51.90
76753;BME280;65687;51.308;16.916;2023-07-20T10:37:51;99165.06;;;21.85;51.48
76753;BME280;65687;51.308;16.916;2023-07-20T10:42:58;99166.73;;;21.63;50.95
76753;BME280;65687;51.308;16.916;2023-07-20T10:53:20;99160.55;;;21.44;52.51
76753;BME280;65687;51.308;16.916;2023-07-20T10:58:22;99161.30;;;21.52;52.12
76753;BME280;65687;51.308;16.916;2023-07-20T11:03:37;99173.77;;;21.45;53.40
76753;BME280;65687;51.308;16.916;2023-07-20T11:08:42;99171.17;;;21.43;55.24
76753;BME280;65687;51.308;16.916;2023-07-20T11:14:04;99191.80;;;21.43;55.24
76753;BME280;65687;51.308;16.916;2023-07-20T11:19:31;99196.76;;;21.14;55.89
76753;BME280;65687;51.308;16.916;2023-07-20T11:24:33;99200.46;;;20.96;55.73
76753;BME280;65687;51.308;16.916;2023-07-20T11:29:37;99201.02;;;20.87;55.35
76753;BME280;65687;51.308;16.916;2023-07-20T11:34:39;99189.50;;;20.98;54.68
76753;BME280;65687;51.308;16.916;2023-07-20T11:39:41;99193.90;;;21.07;53.55
76753;BME280;65687;51.308;16.916;2023-07-20T11:44:42;99204.08;;;21.10;53.99
76753;BME280;65687;51.308;16.916;2023-07-20T11:49:44;99211.64;;;21.10;53.13
76753;BME280;65687;51.308;16.916;2023-07-20T11:54:50;99199.35;;;21.16;52.41
76753;BME280;65687;51.308;16.916;2023-07-20T11:59:57;99203.48;;;21.30;53.15
76753;BME280;65687;51.308;16.916;2023-07-20T12:05:02;99199.49;;;21.27;52.70
76753;BME280;65687;51.308;16.916;2023-07-20T12:15:25;99216.05;;;21.06;51.32
76753;BME280;65687;51.308;16.916;2023-07-20T12:20:35;99220.19;;;20.95;49.91
76753;BME280;65687;51.308;16.916;2023-07-20T12:25:46;99215.48;;;20.90;50.13
76753;BME280;65687;51.308;16.916;2023-07-20T12:30:48;99218.98;;;20.82;48.77
76753;BME280;65687;51.308;16.916;2023-07-20T12:35:58;99215.35;;;20.68;49.39
76753;BME280;65687;51.308;16.916;2023-07-20T12:41:03;99207.27;;;20.66;50.75
76753;BME280;65687;51.308;16.916;2023-07-20T12:46:05;99197.66;;;20.67;51.38
76753;BME280;65687;51.308;16.916;2023-07-20T12:51:08;99189.91;;;20.64;52.02
76753;BME280;65687;51.308;16.916;2023-07-20T12:56:10;99193.77;;;20.70;52.74
76753;BME280;65687;51.308;16.916;2023-07-20T13:01:11;99186.80;;;20.75;51.90
76753;BME280;65687;51.308;16.916;2023-07-20T13:06:13;99185.30;;;20.79;52.43
76753;BME280;65687;51.308;16.916;2023-07-20T13:11:14;99188.60;;;20.83;51.99
76753;BME280;65687;51.308;16.916;2023-07-20T13:16:16;99190.55;;;20.87;52.45
76753;BME280;65687;51.308;16.916;2023-07-20T13:21:18;99186.39;;;20.97;53.84
76753;BME280;65687;51.308;16.916;2023-07-20T13:26:24;99184.73;;;21.02;53.93
76753;BME280;65687;51.308;16.916;2023-07-20T13:31:26;99176.08;;;21.09;53.39
76753;BME280;65687;51.308;16.916;2023-07-20T13:36:27;99177.39;;;21.17;53.70
76753;BME280;65687;51.308;16.916;2023-07-20T13:41:29;99177.23;;;21.31;52.71
76753;BME280;65687;51.308;16.916;2023-07-20T13:46:30;99174.66;;;21.32;51.92
76753;BME280;65687;51.308;16.916;2023-07-20T13:51:32;99169.33;;;21.31;52.32
76753;BME280;65687;51.308;16.916;2023-07-20T13:56:34;99167.98;;;21.34;53.50
76753;BME280;65687;51.308;16.916;2023-07-20T14:01:35;99166.98;;;21.37;54.03
76753;BME280;65687;51.308;16.916;2023-07-20T14:06:37;99170.30;;;21.41;54.07
76753;BME280;65687;51.308;16.916;2023-07-20T14:11:39;99172.55;;;21.43;53.78
76753;BME280;65687;51.308;16.916;2023-07-20T14:16:40;99168.42;;;21.42;54.20
76753;BME280;65687;51.308;16.916;2023-07-20T14:21:42;99171.96;;;21.36;53.88
76753;BME280;65687;51.308;16.916;2023-07-20T14:26:44;99169.32;;;21.32;54.33
76753;BME280;65687;51.308;16.916;2023-07-20T14:31:46;99170.23;;;21.35;54.72
76753;BME280;65687;51.308;16.916;2023-07-20T14:36:53;99172.88;;;21.40;54.30
76753;BME280;65687;51.308;16.916;2023-07-20T14:41:55;99169.20;;;21.36;52.58
76753;BME280;65687;51.308;16.916;2023-07-20T14:46:57;99164.50;;;21.31;51.74
76753;BME280;65687;51.308;16.916;2023-07-20T14:51:59;99155.88;;;21.42;51.71
76753;BME280;65687;51.308;16.916;2023-07-20T14:57:00;99154.70;;;21.46;51.45
76753;BME280;65687;51.308;16.916;2023-07-20T15:02:02;99155.61;;;21.49;50.91
76753;BME280;65687;51.308;16.916;2023-07-20T15:07:04;99160.11;;;21.54;50.89
76753;BME280;65687;51.308;16.916;2023-07-20T15:12:06;99157.38;;;21.55;51.25
76753;BME280;65687;51.308;16.916;2023-07-20T15:17:09;99160.13;;;21.56;50.50
76753;BME280;65687;51.308;16.916;2023-07-20T15:22:11;99156.12;;;21.49;50.77
76753;BME280;65687;51.308;16.916;2023-07-20T15:27:13;99158.47;;;21.44;51.11
76753;BME280;65687;51.308;16.916;2023-07-20T15:32:14;99163.05;;;21.39;51.47
76753;BME280;65687;51.308;16.916;2023-07-20T15:37:18;99167.29;;;21.33;51.90
76753;BME280;65687;51.308;16.916;2023-07-20T15:42:19;99168.42;;;21.27;51.94
76753;BME280;65687;51.308;16.916;2023-07-20T15:47:21;99165.80;;;21.24;52.02
76753;BME280;65687;51.308;16.916;2023-07-20T15:52:22;99166.15;;;21.24;52.05
76753;BME280;65687;51.308;16.916;2023-07-20T15:57:24;99164.46;;;21.27;51.99
76753;BME280;65687;51.308;16.916;2023-07-20T16:02:26;99169.48;;;21.29;52.33
76753;BME280;65687;51.308;16.916;2023-07-20T16:07:27;99172.40;;;21.31;50.80
76753;BME280;65687;51.308;16.916;2023-07-20T16:12:29;99170.00;;;21.31;49.66
76753;BME280;65687;51.308;16.916;2023-07-20T16:17:32;99174.61;;;21.28;49.14
76753;BME280;65687;51.308;16.916;2023-07-20T16:22:34;99180.92;;;21.25;48.66
76753;BME280;65687;51.308;16.916;2023-07-20T16:27:36;99176.60;;;21.23;49.16
76753;BME280;65687;51.308;16.916;2023-07-20T16:32:37;99179.35;;;21.22;49.47
76753;BME280;65687;51.308;16.916;2023-07-20T16:37:39;99179.70;;;21.23;49.22
76753;BME280;65687;51.308;16.916;2023-07-20T16:42:41;99178.66;;;21.23;48.99
76753;BME280;65687;51.308;16.916;2023-07-20T16:47:43;99176.04;;;21.18;50.91
76753;BME280;65687;51.308;16.916;2023-07-20T16:52:45;99182.64;;;21.11;51.34
76753;BME280;65687;51.308;16.916;2023-07-20T16:57:47;99183.84;;;21.11;48.25
76753;BME280;65687;51.308;16.916;2023-07-20T17:02:48;99182.64;;;21.12;47.79
76753;BME280;65687;51.308;16.916;2023-07-20T17:07:51;99184.02;;;21.12;49.56
76753;BME280;65687;51.308;16.916;2023-07-20T17:12:56;99186.84;;;21.05;53.08
76753;BME280;65687;51.308;16.916;2023-07-20T17:17:58;99193.12;;;21.00;53.05
76753;BME280;65687;51.308;16.916;2023-07-20T17:23:00;99197.45;;;20.89;52.28
76753;BME280;65687;51.308;16.916;2023-07-20T17:28:02;99196.32;;;20.82;52.90
76753;BME280;65687;51.308;16.916;2023-07-20T17:33:03;99205.00;;;20.76;53.41
76753;BME280;65687;51.308;16.916;2023-07-20T17:38:05;99205.15;;;20.63;54.44
76753;BME280;65687;51.308;16.916;2023-07-20T17:43:06;99205.66;;;20.51;54.29
76753;BME280;65687;51.308;16.916;2023-07-20T17:48:09;99202.99;;;20.45;54.22
76753;BME280;65687;51.308;16.916;2023-07-20T17:53:11;99201.85;;;20.37;53.39
76753;BME280;65687;51.308;16.916;2023-07-20T17:58:13;99207.40;;;20.32;53.80
76753;BME280;65687;51.308;16.916;2023-07-20T18:03:14;99209.73;;;20.30;53.20
76753;BME280;65687;51.308;16.916;2023-07-20T18:08:16;99216.77;;;20.30;53.30
76753;BME280;65687;51.308;16.916;2023-07-20T18:13:17;99213.46;;;20.26;54.79
76753;BME280;65687;51.308;16.916;2023-07-20T18:18:19;99216.81;;;20.21;53.25
76753;BME280;65687;51.308;16.916;2023-07-20T18:23:20;99225.17;;;20.18;52.24
76753;BME280;65687;51.308;16.916;2023-07-20T18:28:22;99225.47;;;20.16;51.81
76753;BME280;65687;51.308;16.916;2023-07-20T18:33:23;99233.30;;;20.13;51.60
76753;BME280;65687;51.308;16.916;2023-07-20T18:38:26;99237.05;;;20.10;52.13
76753;BME280;65687;51.308;16.916;2023-07-20T18:43:28;99242.43;;;20.05;51.48
76753;BME280;65687;51.308;16.916;2023-07-20T18:48:30;99247.09;;;19.97;51.21
76753;BME280;65687;51.308;16.916;2023-07-20T18:53:31;99249.88;;;19.90;50.86
76753;BME280;65687;51.308;16.916;2023-07-20T18:58:33;99256.80;;;19.85;51.15
76753;BME280;65687;51.308;16.916;2023-07-20T19:03:35;99264.06;;;19.79;51.22
76753;BME280;65687;51.308;16.916;2023-07-20T19:08:36;99272.18;;;19.73;52.04
76753;BME280;65687;51.308;16.916;2023-07-20T19:13:38;99279.00;;;19.63;53.19
76753;BME280;65687;51.308;16.916;2023-07-20T19:18:39;99286.20;;;19.46;53.21
76753;BME280;65687;51.308;16.916;2023-07-20T19:23:41;99288.77;;;19.31;53.00
76753;BME280;65687;51.308;16.916;2023-07-20T19:28:43;99291.90;;;19.18;53.47
76753;BME280;65687;51.308;16.916;2023-07-20T19:33:45;99298.63;;;19.05;54.04
76753;BME280;65687;51.308;16.916;2023-07-20T19:38:46;99300.86;;;18.90;54.78
76753;BME280;65687;51.308;16.916;2023-07-20T19:43:48;99304.87;;;18.78;55.07
76753;BME280;65687;51.308;16.916;2023-07-20T19:48:50;99305.40;;;18.65;55.64
76753;BME280;65687;51.308;16.916;2023-07-20T19:53:51;99304.97;;;18.49;56.06
76753;BME280;65687;51.308;16.916;2023-07-20T19:58:53;99307.81;;;18.33;56.81
76753;BME280;65687;51.308;16.916;2023-07-20T20:03:54;99307.84;;;18.14;57.22
76753;BME280;65687;51.308;16.916;2023-07-20T20:08:57;99310.17;;;17.98;57.34
76753;BME280;65687;51.308;16.916;2023-07-20T20:13:59;99307.92;;;17.85;57.77
76753;BME280;65687;51.308;16.916;2023-07-20T20:19:00;99318.23;;;17.69;58.40
76753;BME280;65687;51.308;16.916;2023-07-20T20:24:02;99318.67;;;17.56;58.53
76753;BME280;65687;51.308;16.916;2023-07-20T20:29:04;99317.84;;;17.40;58.99
76753;BME280;65687;51.308;16.916;2023-07-20T20:34:05;99318.59;;;17.24;59.59
76753;BME280;65687;51.308;16.916;2023-07-20T20:39:07;99325.41;;;17.07;60.09
76753;BME280;65687;51.308;16.916;2023-07-20T20:44:08;99321.80;;;16.95;60.32
76753;BME280;65687;51.308;16.916;2023-07-20T20:49:10;99320.66;;;16.80;60.92
76753;BME280;65687;51.308;16.916;2023-07-20T20:54:11;99322.56;;;16.71;60.94
76753;BME280;65687;51.308;16.916;2023-07-20T20:59:13;99317.81;;;16.62;61.50
76753;BME280;65687;51.308;16.916;2023-07-20T21:04:15;99324.36;;;16.54;61.50
76753;BME280;65687;51.308;16.916;2023-07-20T21:09:17;99326.08;;;16.49;61.93
76753;BME280;65687;51.308;16.916;2023-07-20T21:14:18;99326.50;;;16.47;62.27
76753;BME280;65687;51.308;16.916;2023-07-20T21:19:20;99324.69;;;16.38;62.36
76753;BME280;65687;51.308;16.916;2023-07-20T21:24:22;99329.42;;;16.37;62.91
76753;BME280;65687;51.308;16.916;2023-07-20T21:29:24;99335.23;;;16.37;63.38
76753;BME280;65687;51.308;16.916;2023-07-20T21:34:25;99343.69;;;16.40;63.63
76753;BME280;65687;51.308;16.916;2023-07-20T21:39:27;99341.48;;;16.46;64.17
76753;BME280;65687;51.308;16.916;2023-07-20T21:44:28;99342.89;;;16.47;64.53
76753;BME280;65687;51.308;16.916;2023-07-20T21:49:30;99344.39;;;16.46;64.66
76753;BME280;65687;51.308;16.916;2023-07-20T21:54:33;99341.42;;;16.39;64.76
76753;BME280;65687;51.308;16.916;2023-07-20T21:59:34;99348.86;;;16.32;65.00
76753;BME280;65687;51.308;16.916;2023-07-20T22:04:36;99350.23;;;16.28;65.51
76753;BME280;65687;51.308;16.916;2023-07-20T22:09:37;99348.22;;;16.19;65.92
76753;BME280;65687;51.308;16.916;2023-07-20T22:14:41;99357.02;;;16.17;66.18
76753;BME280;65687;51.308;16.916;2023-07-20T22:19:43;99353.70;;;16.20;66.46
76753;BME280;65687;51.308;16.916;2023-07-20T22:24:45;99355.70;;;16.18;66.76
76753;BME280;65687;51.308;16.916;2023-07-20T22:29:46;99358.08;;;16.18;66.97
76753;BME280;65687;51.308;16.916;2023-07-20T22:34:48;99360.61;;;16.17;67.19
76753;BME280;65687;51.308;16.916;2023-07-20T22:39:49;99357.89;;;16.17;67.03
76753;BME280;65687;51.308;16.916;2023-07-20T22:44:51;99358.76;;;16.18;67.00
76753;BME280;65687;51.308;16.916;2023-07-20T22:49:55;99359.27;;;16.18;67.07
76753;BME280;65687;51.308;16.916;2023-07-20T22:54:56;99360.80;;;16.18;66.89
76753;BME280;65687;51.308;16.916;2023-07-20T22:59:58;99359.16;;;16.15;67.11
76753;BME280;65687;51.308;16.916;2023-07-20T23:05:01;99360.38;;;16.15;67.14
76753;BME280;65687;51.308;16.916;2023-07-20T23:10:03;99359.94;;;16.13;67.32
76753;BME280;65687;51.308;16.916;2023-07-20T23:15:05;99356.30;;;16.11;67.44
76753;BME280;65687;51.308;16.916;2023-07-20T23:20:07;99353.40;;;16.11;67.45
76753;BME280;65687;51.308;16.916;2023-07-20T23:25:24;99351.44;;;16.08;67.72
76753;BME280;65687;51.308;16.916;2023-07-20T23:30:25;99346.70;;;16.05;67.78
76753;BME280;65687;51.308;16.916;2023-07-20T23:35:28;99343.84;;;16.00;67.95
76753;BME280;65687;51.308;16.916;2023-07-20T23:40:30;99343.81;;;16.00;68.08
76753;BME280;65687;51.308;16.916;2023-07-20T23:45:31;99346.58;;;16.01;68.50
76753;BME280;65687;51.308;16.916;2023-07-20T23:50:33;99346.87;;;16.00;68.84
76753;BME280;65687;51.308;16.916;2023-07-20T23:55:34;99351.23;;;15.98;69.07
